Time;durP1;ratioP1;P1;durP2;ratioP2;P2;SDS_P1;SDS_P2;PMS_P1;PMS_P2;Temp;Humidity;BMP_temperature;BMP_pressure;BME280_temperature;BME280_humidity;BME280_pressure;Samples;Min_cycle;Max_cycle;Signal;HPM_P1;HPM_P2
2021/08/24 00:00:07;;;;;;;7.27;6.57;;;;;;;15.47;100.00;97409.75;5031226;28;20623;-70
2021/08/24 00:02:33;;;;;;;7.00;6.30;;;;;;;15.52;99.53;97406.41;5044396;28;20197;-63
2021/08/24 00:04:59;;;;;;;6.93;6.33;;;;;;;15.48;100.00;97410.56;5052583;28;20182;-63
2021/08/24 00:07:24;;;;;;;6.60;6.10;;;;;;;15.47;100.00;97409.75;5043042;28;20206;-63
2021/08/24 00:09:49;;;;;;;6.67;6.17;;;;;;;15.64;99.81;97405.28;5031754;28;20226;-63
2021/08/24 00:12:15;;;;;;;6.83;6.27;;;;;;;15.69;99.41;97407.19;5040496;28;20189;-63
2021/08/24 00:14:41;;;;;;;6.80;6.30;;;;;;;15.58;100.00;97403.59;5052217;28;20181;-63
2021/08/24 00:17:06;;;;;;;8.03;7.23;;;;;;;15.61;99.89;97404.94;5051346;28;20182;-70
2021/08/24 00:19:32;;;;;;;8.80;8.00;;;;;;;15.69;99.30;97407.19;5050429;28;20177;-63
2021/08/24 00:21:57;;;;;;;9.60;8.90;;;;;;;15.81;98.98;97402.59;5038268;28;20265;-64
2021/08/24 00:24:23;;;;;;;10.27;9.37;;;;;;;15.62;100.00;97402.06;5044355;28;20198;-63
2021/08/24 00:26:48;;;;;;;10.47;9.47;;;;;;;15.53;100.00;97397.44;5030630;28;20586;-63
2021/08/24 00:29:14;;;;;;;10.10;9.30;;;;;;;15.36;100.00;97408.00;5031638;28;20186;-64
2021/08/24 00:31:39;;;;;;;8.93;8.17;;;;;;;15.34;100.00;97408.25;5031916;28;20236;-64
2021/08/24 00:34:05;;;;;;;9.27;8.47;;;;;;;15.69;100.00;97393.97;5030946;28;20286;-71
2021/08/24 00:36:31;;;;;;;8.53;7.73;;;;;;;15.59;100.00;97391.19;5031597;28;20628;-63
2021/08/24 00:38:57;;;;;;;8.40;7.60;;;;;;;15.49;100.00;97397.09;5039337;28;20261;-63
2021/08/24 00:41:22;;;;;;;8.20;7.50;;;;;;;15.53;100.00;97400.09;5035495;28;20230;-64
2021/08/24 00:43:48;;;;;;;8.17;7.40;;;;;;;15.48;100.00;97400.78;5037735;28;20208;-63
2021/08/24 00:46:46;;;;;;;10.33;8.40;;;;;;;15.51;100.00;97402.13;5050466;28;20186;-64
2021/08/24 00:49:24;;;;;;;8.63;7.83;;;;;;;15.50;99.67;97396.06;5051075;28;20177;-63
2021/08/24 00:52:22;;;;;;;8.70;7.87;;;;;;;15.39;100.00;97404.88;5051667;28;20580;-63
2021/08/24 00:54:48;;;;;;;8.63;7.00;;;;;;;15.12;100.00;97390.72;4999720;28;20203;-63
2021/08/24 00:57:20;;;;;;;9.37;7.20;;;;;;;15.22;100.00;97390.88;5011288;28;20191;-64
2021/08/24 00:59:47;;;;;;;7.93;7.13;;;;;;;15.30;100.00;97391.28;5011704;28;20183;-64
2021/08/24 01:02:17;;;;;;;9.00;8.20;;;;;;;15.04;100.00;97388.50;5034710;28;20268;-64
2021/08/24 01:04:43;;;;;;;9.83;7.57;;;;;;;15.06;100.00;97387.19;5051240;28;20193;-63
2021/08/24 01:07:27;;;;;;;9.27;7.63;;;;;;;14.87;100.00;97389.28;5032153;28;20670;-69
2021/08/24 01:09:56;;;;;;;8.20;7.40;;;;;;;15.13;100.00;97387.84;5031536;28;20671;-63
2021/08/24 01:12:27;;;;;;;10.10;8.87;;;;;;;15.23;100.00;97400.41;5043143;28;20247;-63
2021/08/24 01:15:02;;;;;;;9.93;8.93;;;;;;;14.93;100.00;97390.16;5050130;28;20182;-63
2021/08/24 01:17:35;;;;;;;9.20;8.30;;;;;;;14.95;100.00;97388.88;5050281;28;20170;-64
2021/08/24 01:20:19;;;;;;;8.50;7.17;;;;;;;14.69;100.00;97391.31;5051506;28;20542;-63
2021/08/24 01:23:22;;;;;;;6.50;6.00;;;;;;;14.45;100.00;97391.44;5049634;28;20219;-63
2021/08/24 01:26:15;;;;;;;6.17;5.67;;;;;;;14.74;100.00;97391.41;5050911;28;20182;-64
2021/08/24 01:29:14;;;;;;;7.57;5.70;;;;;;;14.60;100.00;97390.13;5045181;28;20178;-63
2021/08/24 01:31:56;;;;;;;6.30;5.80;;;;;;;14.47;100.00;97389.38;5036335;28;20186;-64
2021/08/24 01:34:32;;;;;;;5.70;5.20;;;;;;;14.43;99.91;97393.50;5040921;28;20654;-64
2021/08/24 01:37:03;;;;;;;5.70;5.27;;;;;;;14.42;99.84;97397.19;5031729;28;20664;-63
2021/08/24 01:39:40;;;;;;;6.10;4.93;;;;;;;14.45;100.00;97391.44;5029779;28;20596;-63
2021/08/24 01:42:12;;;;;;;5.20;4.70;;;;;;;14.36;99.70;97387.56;5030582;28;20713;-70
2021/08/24 01:45:23;;;;;;;5.40;4.63;;;;;;;14.59;99.49;97388.50;5033040;28;20203;-64
2021/08/24 01:47:51;;;;;;;6.10;4.37;;;;;;;14.54;99.03;97390.00;5051286;28;20182;-63
2021/08/24 01:50:20;;;;;;;5.77;5.27;;;;;;;14.50;99.88;97383.59;5050127;28;20193;-63
2021/08/24 01:53:06;;;;;;;7.00;6.40;;;;;;;14.40;100.00;97390.53;5050448;28;20194;-63
2021/08/24 01:55:39;;;;;;;4.93;4.53;;;;;;;14.28;100.00;97376.56;5040654;28;20178;-63
2021/08/24 01:58:22;;;;;;;8.20;5.47;;;;;;;14.29;100.00;97381.59;5031195;28;20179;-63
2021/08/24 02:00:51;;;;;;;5.43;4.97;;;;;;;14.20;100.00;97390.13;5036430;28;20621;-64
2021/08/24 02:03:32;;;;;;;5.67;5.03;;;;;;;14.27;100.00;97382.88;5048982;28;20186;-64
2021/08/24 02:06:17;;;;;;;6.27;4.57;;;;;;;14.14;100.00;97389.22;5037533;28;20228;-65
2021/08/24 02:08:49;;;;;;;4.77;4.37;;;;;;;14.15;99.43;97380.28;5030987;28;20651;-65
2021/08/24 02:11:14;;;;;;;7.07;5.03;;;;;;;14.13;99.01;97387.63;5030447;28;20582;-65
2021/08/24 02:13:45;;;;;;;5.40;4.33;;;;;;;14.12;99.72;97384.19;5031068;28;20289;-65
2021/08/24 02:16:23;;;;;;;4.77;4.30;;;;;;;13.88;100.00;97387.91;5044608;28;20300;-71
2021/08/24 02:18:54;;;;;;;5.30;4.80;;;;;;;13.81;100.00;97389.09;5043466;28;20258;-65
2021/08/24 02:21:27;;;;;;;4.73;4.33;;;;;;;13.88;100.00;97389.72;5037387;28;20174;-64
2021/08/24 02:23:57;;;;;;;4.40;4.00;;;;;;;13.83;100.00;97390.44;5051796;28;20527;-65
2021/08/24 02:26:26;;;;;;;5.57;4.10;;;;;;;13.85;100.00;97390.22;5053490;28;20178;-64
2021/08/24 02:28:55;;;;;;;6.57;4.60;;;;;;;13.77;100.00;97396.63;5054114;28;20206;-64
2021/08/24 02:31:35;;;;;;;4.40;4.00;;;;;;;13.68;100.00;97395.38;5048672;28;20644;-64
2021/08/24 02:34:19;;;;;;;4.20;3.67;;;;;;;13.65;100.00;97391.38;5033949;28;20309;-64
2021/08/24 02:36:59;;;;;;;7.10;3.90;;;;;;;13.63;99.86;97385.56;5033785;28;20566;-64
2021/08/24 02:39:33;;;;;;;5.27;3.77;;;;;;;13.68;99.80;97387.47;5037727;28;20194;-64
2021/08/24 02:42:08;;;;;;;5.38;4.88;;;;;;;13.68;99.40;97390.13;5042533;28;20535;-64
2021/08/24 02:44:48;;;;;;;5.03;4.63;;;;;;;13.73;98.93;97395.50;5043753;28;20612;-64
2021/08/24 02:47:14;;;;;;;5.53;4.93;;;;;;;13.51;100.00;97387.38;5053161;28;20671;-65
2021/08/24 02:49:40;;;;;;;6.33;4.43;;;;;;;13.44;99.65;97383.25;5049077;28;20540;-64
2021/08/24 02:52:09;;;;;;;7.10;4.53;;;;;;;13.40;100.00;97384.75;5043571;28;20186;-64
2021/08/24 02:54:41;;;;;;;4.40;3.97;;;;;;;13.12;100.00;97396.75;5051767;28;20262;-64
2021/08/24 02:57:07;;;;;;;4.67;4.27;;;;;;;13.06;100.00;97394.19;5053757;28;20182;-64
2021/08/24 02:59:34;;;;;;;6.50;4.23;;;;;;;13.12;100.00;97388.88;5047729;28;20189;-64
2021/08/24 03:02:01;;;;;;;8.10;4.20;;;;;;;13.10;100.00;97387.44;5039641;28;20190;-64
2021/08/24 03:04:27;;;;;;;4.77;4.27;;;;;;;13.03;100.00;97378.88;5052090;28;20231;-64
2021/08/24 03:06:57;;;;;;;5.00;4.50;;;;;;;12.98;100.00;97379.56;5053414;28;20186;-64
2021/08/24 03:09:26;;;;;;;8.73;3.63;;;;;;;12.94;100.00;97383.66;5039440;28;20186;-64
2021/08/24 03:12:17;;;;;;;5.50;4.57;;;;;;;13.10;100.00;97392.72;5039309;28;20185;-64
2021/08/24 03:14:51;;;;;;;4.30;3.90;;;;;;;12.96;100.00;97383.44;5037367;28;20217;-64
2021/08/24 03:17:25;;;;;;;5.97;4.83;;;;;;;12.95;100.00;97384.47;5032607;28;20191;-66
2021/08/24 03:19:53;;;;;;;4.90;4.40;;;;;;;12.84;100.00;97389.47;5052935;28;20189;-64
2021/08/24 03:22:20;;;;;;;5.50;5.00;;;;;;;12.91;100.00;97384.94;5050071;28;20190;-65
2021/08/24 03:24:45;;;;;;;5.03;4.33;;;;;;;12.78;100.00;97393.00;5053256;28;20174;-64
2021/08/24 03:27:11;;;;;;;7.40;4.90;;;;;;;12.91;100.00;97390.19;5052782;28;20189;-71
2021/08/24 03:29:38;;;;;;;6.07;5.00;;;;;;;13.03;100.00;97381.50;5052193;28;20615;-67
2021/08/24 03:32:06;;;;;;;6.37;5.47;;;;;;;12.99;100.00;97382.97;5052606;28;20261;-64
2021/08/24 03:34:31;;;;;;;6.77;6.17;;;;;;;12.81;100.00;97379.41;5052213;28;20210;-64
2021/08/24 03:36:57;;;;;;;7.10;6.40;;;;;;;12.73;100.00;97384.19;5053062;28;20182;-64
2021/08/24 03:39:22;;;;;;;7.13;6.17;;;;;;;12.64;100.00;97381.09;5041040;28;20186;-64
2021/08/24 03:41:48;;;;;;;7.00;6.40;;;;;;;12.68;100.00;97384.06;5045070;28;20316;-64
2021/08/24 03:44:14;;;;;;;7.37;6.13;;;;;;;12.89;100.00;97388.78;5052063;28;20198;-72
2021/08/24 03:46:40;;;;;;;9.43;7.23;;;;;;;13.00;100.00;97382.75;5050874;28;20174;-64
2021/08/24 03:49:05;;;;;;;7.17;6.47;;;;;;;13.00;100.00;97388.00;5040373;28;20309;-64
2021/08/24 03:51:30;;;;;;;9.20;8.37;;;;;;;12.70;100.00;97388.09;5041286;28;20697;-64
2021/08/24 03:53:56;;;;;;;8.50;7.57;;;;;;;12.48;100.00;97392.25;5042966;28;20620;-64
2021/08/24 03:56:21;;;;;;;9.63;8.13;;;;;;;12.59;100.00;97390.69;5031668;28;20229;-64
2021/08/24 03:58:46;;;;;;;8.07;7.37;;;;;;;12.48;100.00;97398.28;5040394;28;20183;-67
2021/08/24 04:01:18;;;;;;;11.30;8.30;;;;;;;12.44;100.00;97399.75;5044924;28;20194;-71
2021/08/24 04:03:43;;;;;;;12.07;8.87;;;;;;;12.42;100.00;97406.28;5034315;28;20500;-64
2021/08/24 04:06:09;;;;;;;10.63;9.63;;;;;;;12.35;100.00;97413.44;5036680;28;20182;-64
2021/08/24 04:08:35;;;;;;;9.47;8.57;;;;;;;12.30;100.00;97416.75;5050856;28;20189;-64
2021/08/24 04:11:08;;;;;;;10.10;9.10;;;;;;;12.14;100.00;97416.53;5046609;28;20189;-64
2021/08/24 04:13:34;;;;;;;9.80;8.90;;;;;;;12.21;100.00;97417.25;5031183;28;20715;-64
2021/08/24 04:16:08;;;;;;;15.03;10.70;;;;;;;12.15;100.00;97412.91;5047220;28;20277;-64
2021/08/24 04:18:34;;;;;;;9.40;8.43;;;;;;;12.15;100.00;97407.66;5050480;28;20332;-64
2021/08/24 04:21:00;;;;;;;12.03;8.73;;;;;;;12.16;100.00;97411.84;5047303;28;20193;-65
2021/08/24 04:23:25;;;;;;;11.17;9.00;;;;;;;12.34;100.00;97415.28;5030811;28;20870;-64
2021/08/24 04:25:51;;;;;;;9.57;8.63;;;;;;;12.29;100.00;97417.75;5032232;28;20250;-65
2021/08/24 04:28:17;;;;;;;11.37;8.67;;;;;;;12.35;100.00;97416.88;5031544;28;20181;-71
2021/08/24 04:30:42;;;;;;;9.50;8.57;;;;;;;12.47;100.00;97420.38;5033173;28;20183;-65
2021/08/24 04:33:08;;;;;;;9.70;8.70;;;;;;;12.47;100.00;97424.81;5047427;28;20276;-64
2021/08/24 04:35:33;;;;;;;10.60;8.50;;;;;;;12.51;100.00;97407.56;5049612;28;20776;-64
2021/08/24 04:37:59;;;;;;;10.13;8.53;;;;;;;12.33;100.00;97416.28;5048705;28;20176;-64
2021/08/24 04:40:27;;;;;;;10.87;8.57;;;;;;;12.28;100.00;97416.16;5029682;28;20194;-64
2021/08/24 04:42:53;;;;;;;12.33;8.93;;;;;;;12.31;100.00;97415.72;5050895;28;20251;-64
2021/08/24 04:45:18;;;;;;;8.97;7.93;;;;;;;12.25;100.00;97418.44;5050935;28;20178;-64
2021/08/24 04:47:44;;;;;;;10.43;8.10;;;;;;;12.34;100.00;97420.53;5051110;28;20281;-65
2021/08/24 04:50:10;;;;;;;9.40;7.83;;;;;;;12.38;100.00;97424.31;5031470;28;20240;-64
2021/08/24 04:52:35;;;;;;;12.77;8.73;;;;;;;12.46;100.00;97423.22;5046388;28;20166;-64
2021/08/24 04:55:00;;;;;;;13.27;7.87;;;;;;;12.43;100.00;97418.38;5049689;28;20631;-63
2021/08/24 04:57:26;;;;;;;9.93;8.27;;;;;;;12.57;100.00;97427.72;5050734;28;20196;-64
2021/08/24 04:59:51;;;;;;;8.23;7.27;;;;;;;12.62;100.00;97425.22;5051327;28;20181;-64
2021/08/24 05:02:18;;;;;;;8.00;7.20;;;;;;;12.56;100.00;97426.09;5036629;28;20186;-71
2021/08/24 05:04:43;;;;;;;9.60;8.57;;;;;;;12.53;100.00;97426.56;5030926;28;20193;-64
2021/08/24 05:07:09;;;;;;;7.90;7.00;;;;;;;12.67;100.00;97430.59;5031663;28;20183;-64
2021/08/24 05:09:34;;;;;;;8.87;6.63;;;;;;;12.84;100.00;97431.56;5030678;28;20883;-64
2021/08/24 05:12:00;;;;;;;5.93;5.43;;;;;;;12.95;100.00;97426.56;5043016;28;20671;-64
2021/08/24 05:14:25;;;;;;;7.47;6.40;;;;;;;12.99;100.00;97430.34;5050278;28;20229;-64
2021/08/24 05:16:58;;;;;;;8.37;6.77;;;;;;;13.07;100.00;97435.28;5050615;28;20178;-64
2021/08/24 05:19:25;;;;;;;7.67;6.97;;;;;;;13.21;100.00;97436.69;5050785;28;20182;-64
2021/08/24 05:21:50;;;;;;;7.87;7.07;;;;;;;13.27;100.00;97443.69;5041724;28;20209;-65
2021/08/24 05:24:16;;;;;;;7.97;7.27;;;;;;;13.16;100.00;97441.84;5030807;28;20608;-71
2021/08/24 05:26:41;;;;;;;8.23;6.83;;;;;;;13.30;100.00;97443.25;5030950;28;20636;-64
2021/08/24 05:29:07;;;;;;;10.37;6.80;;;;;;;13.40;100.00;97443.50;5031453;28;20529;-64
2021/08/24 05:31:33;;;;;;;7.70;7.00;;;;;;;13.61;99.88;97439.47;5040639;28;20244;-64
2021/08/24 05:33:58;;;;;;;7.67;6.97;;;;;;;13.80;98.66;97443.59;5050626;28;20205;-64
2021/08/24 05:36:24;;;;;;;8.50;7.30;;;;;;;13.65;97.44;97436.16;5050418;28;20182;-64
2021/08/24 05:38:49;;;;;;;7.30;6.33;;;;;;;13.68;98.05;97438.34;5034800;28;20528;-64
2021/08/24 05:41:15;;;;;;;7.57;6.73;;;;;;;14.01;96.38;97437.72;5036940;28;20660;-71
2021/08/24 05:43:41;;;;;;;7.43;6.40;;;;;;;13.73;97.50;97440.28;5033668;28;20201;-66
2021/08/24 05:46:10;;;;;;;6.97;6.27;;;;;;;13.62;98.32;97441.91;5031245;28;20187;-66
2021/08/24 05:48:36;;;;;;;5.07;4.60;;;;;;;13.71;95.29;97443.13;5030341;28;20248;-65
2021/08/24 05:51:17;;;;;;;6.37;5.50;;;;;;;13.85;95.59;97443.72;5037022;28;20635;-66
2021/08/24 05:53:43;;;;;;;8.97;5.97;;;;;;;14.02;95.35;97446.44;5054015;28;20186;-66
2021/08/24 05:56:17;;;;;;;6.37;5.73;;;;;;;14.26;94.28;97447.22;5054660;28;20697;-66
2021/08/24 05:58:42;;;;;;;7.23;5.67;;;;;;;14.24;93.49;97450.06;5054523;28;20174;-66
2021/08/24 06:01:09;;;;;;;7.63;5.70;;;;;;;14.28;95.32;97447.75;5053250;28;20657;-66
2021/08/24 06:03:37;;;;;;;6.57;5.87;;;;;;;14.16;95.59;97438.03;5039796;28;20214;-66
2021/08/24 06:06:04;;;;;;;6.73;6.07;;;;;;;13.91;98.06;97442.78;5054602;28;20231;-67
2021/08/24 06:08:29;;;;;;;7.77;6.10;;;;;;;13.91;98.12;97444.63;5053703;28;20281;-67
2021/08/24 06:10:54;;;;;;;6.60;6.00;;;;;;;14.08;97.56;97443.69;5052626;28;20269;-67
2021/08/24 06:13:20;;;;;;;6.10;5.50;;;;;;;14.49;96.06;97445.31;5053556;28;20198;-67
2021/08/24 06:15:45;;;;;;;6.60;5.87;;;;;;;14.47;94.42;97447.41;5054270;28;20185;-67
2021/08/24 06:18:10;;;;;;;8.37;5.70;;;;;;;14.53;94.03;97448.31;5046100;28;20186;-67
2021/08/24 06:20:36;;;;;;;6.60;5.47;;;;;;;14.48;94.69;97443.72;5040466;28;20238;-67
2021/08/24 06:23:01;;;;;;;5.40;4.90;;;;;;;14.62;93.66;97438.97;5052175;28;20185;-67
2021/08/24 06:25:26;;;;;;;7.33;6.37;;;;;;;14.45;94.65;97441.53;5053057;28;20657;-68
2021/08/24 06:27:52;;;;;;;6.73;5.13;;;;;;;14.63;94.67;97447.69;5039834;28;20563;-67
2021/08/24 06:30:19;;;;;;;6.00;5.30;;;;;;;14.66;94.42;97447.19;5034420;28;20206;-67
2021/08/24 06:32:52;;;;;;;8.97;5.87;;;;;;;14.81;92.70;97444.84;5035069;28;20233;-68
2021/08/24 06:35:21;;;;;;;6.73;5.13;;;;;;;14.78;92.84;97446.13;5047607;28;20242;-67
2021/08/24 06:37:46;;;;;;;6.67;5.63;;;;;;;14.93;90.76;97448.25;5039224;28;20264;-67
2021/08/24 06:40:14;;;;;;;7.43;4.90;;;;;;;14.50;92.44;97446.91;5038718;28;20277;-68
2021/08/24 06:42:42;;;;;;;6.00;5.10;;;;;;;14.62;91.55;97446.88;5038335;28;20221;-69
2021/08/24 06:45:10;;;;;;;5.00;4.47;;;;;;;14.36;91.00;97445.56;5040784;28;20178;-67
2021/08/24 06:47:36;;;;;;;5.10;4.60;;;;;;;14.16;92.90;97445.94;5046376;28;20259;-67
2021/08/24 06:50:01;;;;;;;7.93;4.63;;;;;;;14.15;93.66;97451.47;5037090;28;20247;-67
2021/08/24 06:52:27;;;;;;;6.30;4.77;;;;;;;14.15;92.75;97446.19;5046577;28;20186;-68
2021/08/24 06:54:52;;;;;;;5.57;4.93;;;;;;;14.05;93.14;97445.97;5049278;28;20216;-68
2021/08/24 06:57:17;;;;;;;6.13;4.77;;;;;;;14.05;91.87;97453.88;5039816;28;20229;-68
2021/08/24 06:59:43;;;;;;;10.67;5.03;;;;;;;13.84;93.71;97441.31;5046347;28;20193;-67
2021/08/24 07:02:08;;;;;;;5.17;4.40;;;;;;;13.98;94.92;97448.75;5039470;28;20222;-67
2021/08/24 07:04:34;;;;;;;5.73;5.23;;;;;;;14.11;95.61;97440.56;5044174;28;20190;-68
2021/08/24 07:06:59;;;;;;;6.10;5.37;;;;;;;14.09;94.34;97449.75;5039932;28;20183;-67
2021/08/24 07:09:25;;;;;;;5.80;5.20;;;;;;;14.04;94.59;97447.81;5050999;28;20189;-67
2021/08/24 07:11:50;;;;;;;6.07;5.00;;;;;;;14.05;93.83;97452.03;5046303;28;20186;-68
2021/08/24 07:14:16;;;;;;;7.23;4.50;;;;;;;14.02;91.57;97457.78;5035735;28;20316;-68
2021/08/24 07:16:43;;;;;;;5.50;4.50;;;;;;;13.95;93.40;97453.66;5035025;28;20194;-67
2021/08/24 07:19:08;;;;;;;6.00;4.90;;;;;;;13.73;93.64;97456.91;5042117;28;20659;-67
2021/08/24 07:21:34;;;;;;;5.77;4.73;;;;;;;13.84;94.98;97455.28;5040846;28;20220;-67
2021/08/24 07:24:00;;;;;;;5.93;4.93;;;;;;;13.87;92.57;97451.41;5038690;28;20181;-67
2021/08/24 07:26:25;;;;;;;5.63;4.80;;;;;;;13.68;95.01;97448.88;5035466;28;20190;-67
2021/08/24 07:28:51;;;;;;;4.60;4.20;;;;;;;13.72;94.35;97451.84;5042345;28;20170;-68
2021/08/24 07:31:16;;;;;;;6.30;4.07;;;;;;;13.64;94.32;97445.13;5044688;28;20692;-73
2021/08/24 07:33:42;;;;;;;5.33;4.83;;;;;;;13.78;94.55;97443.03;5042330;28;20574;-68
2021/08/24 07:36:07;;;;;;;4.87;4.20;;;;;;;13.91;93.39;97447.25;5040632;28;20258;-68
2021/08/24 07:38:33;;;;;;;5.87;4.27;;;;;;;13.88;94.13;97448.50;5038267;28;20217;-72
2021/08/24 07:40:58;;;;;;;4.60;4.20;;;;;;;14.15;93.50;97444.34;5046812;28;20230;-67
2021/08/24 07:43:24;;;;;;;6.50;4.80;;;;;;;14.19;93.20;97446.53;5041948;28;20194;-67
2021/08/24 07:45:50;;;;;;;8.47;5.57;;;;;;;14.12;93.57;97447.47;5036710;28;20178;-67
2021/08/24 07:48:15;;;;;;;6.80;4.70;;;;;;;14.08;93.19;97448.16;5044724;28;20194;-72
2021/08/24 07:50:41;;;;;;;5.97;4.93;;;;;;;13.99;93.47;97436.34;5043244;28;20261;-67
2021/08/24 07:53:06;;;;;;;7.80;4.83;;;;;;;14.08;93.79;97441.06;5043278;28;20247;-68
2021/08/24 07:55:34;;;;;;;4.50;4.10;;;;;;;14.20;93.93;97440.22;5039444;28;20237;-67
2021/08/24 07:58:00;;;;;;;5.63;4.40;;;;;;;14.67;91.96;97443.53;5038173;28;20536;-67
2021/08/24 08:00:25;;;;;;;8.93;5.10;;;;;;;14.60;89.24;97443.66;5038687;28;20186;-67
2021/08/24 08:02:51;;;;;;;5.17;4.67;;;;;;;14.48;90.13;97445.56;5036810;28;20185;-67
2021/08/24 08:05:17;;;;;;;5.10;4.60;;;;;;;14.49;90.53;97449.78;5051977;28;20260;-72
2021/08/24 08:07:43;;;;;;;5.20;4.37;;;;;;;14.29;89.59;97459.91;5050736;28;20173;-67
2021/08/24 08:10:09;;;;;;;5.57;4.50;;;;;;;14.26;90.14;97463.84;5041973;28;20198;-67
2021/08/24 08:12:35;;;;;;;5.00;3.57;;;;;;;14.69;88.37;97459.94;5031684;28;20257;-67
2021/08/24 08:15:02;;;;;;;3.93;3.63;;;;;;;14.86;86.90;97473.97;5045580;28;20220;-67
2021/08/24 08:17:28;;;;;;;4.17;3.80;;;;;;;15.26;85.45;97471.25;5051602;28;20197;-67
2021/08/24 08:19:53;;;;;;;3.70;3.40;;;;;;;15.32;84.29;97470.28;5038615;28;20174;-68
2021/08/24 08:22:18;;;;;;;3.63;3.30;;;;;;;15.11;83.50;97465.69;5042357;28;20210;-68
2021/08/24 08:24:44;;;;;;;3.90;3.53;;;;;;;14.97;85.33;97466.00;5031786;28;20524;-67
2021/08/24 08:27:09;;;;;;;4.10;3.70;;;;;;;14.67;86.58;97462.81;5032054;28;20207;-67
2021/08/24 08:29:34;;;;;;;4.17;3.37;;;;;;;14.79;85.84;97470.66;5031438;28;20769;-67
2021/08/24 08:32:07;;;;;;;6.63;3.83;;;;;;;14.95;84.97;97472.53;5030856;28;20182;-67
2021/08/24 08:34:32;;;;;;;4.20;3.80;;;;;;;15.45;83.76;97471.78;5039851;28;20205;-68
2021/08/24 08:36:58;;;;;;;5.77;4.07;;;;;;;15.31;83.80;97476.59;5046345;28;20209;-68
2021/08/24 08:39:23;;;;;;;6.40;4.43;;;;;;;15.60;82.75;97472.88;5046650;28;20179;-67
2021/08/24 08:42:17;;;;;;;5.17;4.50;;;;;;;15.55;82.61;97461.44;5049183;28;20312;-67
2021/08/24 08:44:54;;;;;;;4.27;3.90;;;;;;;15.87;80.94;97457.16;5045788;28;20192;-68
2021/08/24 08:47:58;;;;;;;4.50;3.27;;;;;;;15.85;80.70;97474.28;5032531;28;20655;-69
2021/08/24 08:50:42;;;;;;;4.73;3.77;;;;;;;15.92;79.88;97459.06;5032328;28;20202;-68
2021/08/24 08:53:18;;;;;;;4.77;3.90;;;;;;;16.14;78.49;97473.09;5042504;28;20202;-67
2021/08/24 08:55:44;;;;;;;5.33;3.67;;;;;;;15.64;81.14;97476.63;5029945;28;20189;-67
2021/08/24 08:58:15;;;;;;;4.10;3.70;;;;;;;15.80;81.99;97467.88;5032306;28;20187;-67
2021/08/24 09:00:51;;;;;;;4.37;3.40;;;;;;;15.34;80.59;97461.06;5029684;28;20238;-68
2021/08/24 09:03:31;;;;;;;3.87;3.57;;;;;;;15.33;81.74;97469.22;5044558;28;20627;-72
2021/08/24 09:05:58;;;;;;;4.00;3.50;;;;;;;15.20;82.73;97462.44;5037704;28;20663;-67
2021/08/24 09:08:24;;;;;;;4.77;3.93;;;;;;;15.55;81.92;97472.78;5032213;28;20208;-67
2021/08/24 09:10:53;;;;;;;4.43;3.13;;;;;;;15.75;80.54;97465.16;5031597;28;20272;-67
2021/08/24 09:13:24;;;;;;;4.57;3.57;;;;;;;15.94;79.10;97470.19;5030293;28;20210;-67
2021/08/24 09:16:09;;;;;;;3.93;3.50;;;;;;;16.17;78.54;97464.66;5035385;28;20198;-67
2021/08/24 09:18:43;;;;;;;4.17;3.30;;;;;;;16.01;79.10;97465.50;5041450;28;20174;-66
2021/08/24 09:21:14;;;;;;;3.23;2.83;;;;;;;16.05;77.79;97464.78;5040615;28;20183;-64
2021/08/24 09:23:39;;;;;;;2.67;2.47;;;;;;;16.06;78.31;97463.72;5040479;28;20700;-65
2021/08/24 09:26:35;;;;;;;4.87;2.87;;;;;;;16.15;78.07;97469.41;5033204;28;20194;-64
2021/08/24 09:29:01;;;;;;;2.70;2.50;;;;;;;16.29;76.51;97464.56;5039145;28;20221;-65
2021/08/24 09:31:26;;;;;;;3.43;2.93;;;;;;;16.08;77.26;97464.31;5043090;28;20190;-65
2021/08/24 09:33:52;;;;;;;9.67;2.60;;;;;;;16.10;76.23;97461.41;5050242;28;20213;-70
2021/08/24 09:36:19;;;;;;;2.93;2.70;;;;;;;16.35;76.39;97464.38;5034681;28;20270;-74
2021/08/24 09:38:54;;;;;;;2.63;2.43;;;;;;;16.49;76.21;97464.81;5042046;28;20235;-64
2021/08/24 09:41:22;;;;;;;2.77;2.57;;;;;;;16.22;75.72;97465.53;5038895;28;20713;-65
2021/08/24 09:43:48;;;;;;;3.20;2.50;;;;;;;16.46;75.13;97465.28;5050237;28;20194;-65
2021/08/24 09:46:16;;;;;;;2.57;2.37;;;;;;;16.22;75.96;97456.78;5041895;28;20189;-76
2021/08/24 09:49:00;;;;;;;2.80;2.60;;;;;;;16.61;74.87;97457.53;5046440;28;20190;-66
2021/08/24 09:51:36;;;;;;;2.70;2.50;;;;;;;16.59;74.91;97451.72;5034675;28;20178;-65
2021/08/24 09:54:05;;;;;;;2.87;2.60;;;;;;;16.52;75.54;97459.81;5041960;28;20768;-65
2021/08/24 09:56:49;;;;;;;3.00;2.70;;;;;;;16.69;75.31;97459.75;5046015;28;20178;-69
2021/08/24 09:59:24;;;;;;;3.30;2.70;;;;;;;16.45;75.64;97466.34;5035336;28;20277;-76
2021/08/24 10:01:51;;;;;;;3.20;2.90;;;;;;;16.49;75.67;97470.09;5054708;28;20575;-65
2021/08/24 10:04:17;;;;;;;3.83;2.90;;;;;;;16.27;76.57;97456.09;5051686;28;20208;-76
2021/08/24 10:06:53;;;;;;;3.47;2.70;;;;;;;16.23;77.61;97461.03;5036850;28;20273;-65
2021/08/24 10:09:27;;;;;;;3.00;2.80;;;;;;;16.00;78.35;97459.41;5038283;28;20285;-65
2021/08/24 10:12:11;;;;;;;3.10;2.90;;;;;;;15.88;78.58;97460.59;5054817;28;20193;-65
2021/08/24 10:14:36;;;;;;;3.30;3.00;;;;;;;15.79;80.28;97465.47;5053254;28;20206;-66
2021/08/24 10:17:10;;;;;;;3.30;3.00;;;;;;;15.93;79.55;97453.53;5054029;28;20257;-66
2021/08/24 10:19:41;;;;;;;3.30;3.00;;;;;;;16.00;78.82;97467.34;5046264;28;20179;-65
2021/08/24 10:22:14;;;;;;;2.97;2.70;;;;;;;16.38;78.72;97453.31;5044892;28;20182;-65
2021/08/24 10:24:53;;;;;;;3.03;2.83;;;;;;;16.67;76.56;97458.41;5037992;28;20178;-65
2021/08/24 10:27:33;;;;;;;3.13;2.93;;;;;;;16.43;76.25;97463.16;5045628;28;20276;-65
2021/08/24 10:30:09;;;;;;;3.87;3.20;;;;;;;16.02;78.60;97464.47;5053827;28;20166;-65
2021/08/24 10:32:38;;;;;;;3.30;3.00;;;;;;;16.36;78.00;97462.53;5043113;28;20635;-64
2021/08/24 10:35:23;;;;;;;3.07;2.87;;;;;;;16.07;79.41;97462.69;5032501;28;20198;-64
2021/08/24 10:37:50;;;;;;;3.30;3.00;;;;;;;16.50;78.43;97467.19;5030000;28;20178;-64
2021/08/24 10:40:26;;;;;;;2.97;2.57;;;;;;;16.45;77.61;97466.34;5039380;28;20189;-74
2021/08/24 10:43:14;;;;;;;3.03;2.80;;;;;;;16.31;79.19;97473.84;5034220;28;20195;-65
2021/08/24 10:45:59;;;;;;;3.07;2.80;;;;;;;15.98;78.72;97469.47;5032589;28;20625;-65
2021/08/24 10:48:25;;;;;;;4.77;2.60;;;;;;;16.08;78.74;97474.09;5033667;28;20201;-64
2021/08/24 10:51:07;;;;;;;3.30;3.00;;;;;;;16.08;79.54;97476.72;5032642;28;20171;-65
2021/08/24 10:53:58;;;;;;;5.40;2.73;;;;;;;16.10;79.80;97475.44;5047606;28;20201;-65
2021/08/24 10:56:41;;;;;;;3.83;2.73;;;;;;;16.17;79.39;97489.28;5052640;28;20170;-66
2021/08/24 10:59:19;;;;;;;3.40;3.10;;;;;;;16.13;79.63;97490.00;5034580;28;20185;-70
2021/08/24 11:02:07;;;;;;;3.60;3.20;;;;;;;16.17;78.91;97488.47;5033654;28;20719;-64
2021/08/24 11:05:04;;;;;;;3.80;3.40;;;;;;;15.93;79.82;97490.53;5025517;28;20956;-66
2021/08/24 11:07:46;;;;;;;3.33;3.03;;;;;;;16.13;79.10;97488.16;5041446;28;20197;-65
2021/08/24 11:10:36;;;;;;;3.23;2.93;;;;;;;16.36;78.16;97486.34;5042605;28;20194;-65
2021/08/24 11:13:19;;;;;;;3.17;2.80;;;;;;;16.37;77.94;97488.75;5045514;28;20235;-64
2021/08/24 11:15:57;;;;;;;4.00;3.03;;;;;;;16.31;78.03;97481.00;5051521;28;20244;-65
2021/08/24 11:18:52;;;;;;;3.00;2.70;;;;;;;16.72;76.11;97472.50;5051917;28;20178;-65
2021/08/24 11:21:31;;;;;;;2.60;2.40;;;;;;;16.80;75.00;97482.66;5044096;28;20292;-76
2021/08/24 11:24:21;;;;;;;2.97;2.67;;;;;;;17.20;73.70;97476.16;5034031;28;20209;-64
2021/08/24 11:26:58;;;;;;;2.80;2.60;;;;;;;17.15;73.78;97476.13;5040574;28;20175;-64
2021/08/24 11:29:38;;;;;;;3.10;2.50;;;;;;;17.24;74.33;97474.59;5033847;28;20182;-64
2021/08/24 11:32:29;;;;;;;2.80;2.60;;;;;;;17.81;72.35;97469.50;5043308;28;20166;-64
2021/08/24 11:35:22;;;;;;;3.20;3.00;;;;;;;17.60;72.96;97467.78;5044262;28;20223;-64
2021/08/24 11:37:58;;;;;;;3.40;3.10;;;;;;;17.31;73.24;97470.69;5034521;28;20189;-64
2021/08/24 11:40:30;;;;;;;3.22;2.92;;;;;;;17.56;73.53;97478.03;5032543;28;20186;-64
2021/08/24 11:43:04;;;;;;;2.90;2.70;;;;;;;17.91;72.38;97471.41;5037873;28;20281;-65
2021/08/24 11:45:51;;;;;;;4.90;2.85;;;;;;;18.03;72.43;97480.78;5048061;28;20178;-64